Thursday, September 20, 2018, 9:18 AM EDT
Back to Local

KAUG, Augusta State Airport

Location: Augusta, ME, United States Lat: 44.317
Local Time: 9:18 AM EDT (13:18 GMT) Lon: -69.8
Time Zone: US/Eastern Elev: 351 ft

Show me the last for .
Show Coded

Time T Td Feel RH Dir Speed Gust Alt SLP Vis Weather Sky Remarks
2018-09-20 08:53 54 48 - 80 360° 5 - 30.28 30.28 10 OVC050 None
2018-09-20 07:53 52 48 - 86 40° 8 - 30.25 30.25 10 OVC050 6-hr Min Temp (8am): 51.1°F
6-hr Max Temp (8am): 55.9°F
2018-09-20 06:53 52 49 - 89 40° 8 - 30.23 30.24 10 OVC050 None
2018-09-20 06:37 52 49 - 89 30° 7 - 30.23 - 10 FEW008 OVC050 None
2018-09-20 05:53 53 50 - 89 30° 9 - 30.21 30.21 10 OVC048 None
2018-09-20 05:35 53 50 - 89 40° 12 - 30.21 - 10 SCT011 OVC049 None
2018-09-20 04:53 54 51 - 89 20° 7 - 30.21 30.21 10 OVC013 None
2018-09-20 04:03 55 52 - 89 20° 6 - 30.20 - 10 OVC014 None
2018-09-20 03:53 55 52 - 89 30° 6 - 30.20 30.20 10 OVC016 None
2018-09-20 03:43 55 52 - 89 30° 3 - 30.19 - 10 BKN016 OVC038 None
2018-09-20 02:53 55 51 - 86 70° 3 - 30.18 30.18 10 FEW024 OVC037 None
2018-09-20 02:45 55 51 - 86 70° 7 - 30.18 - 10 SCT024 OVC037 None
2018-09-20 02:06 56 51 - 83 70° 8 - 30.18 - 10 BKN017 OVC032 None
2018-09-20 01:53 56 51 - 83 60° 9 - 30.18 30.18 10 FEW019 OVC032 6-hr Min Temp (2am): 55.9°F
6-hr Max Temp (2am): 57.0°F
2018-09-20 01:07 56 53 - 90 30° 5 - 30.17 - 10 OVC030 None
2018-09-20 00:53 56 53 - 90 10° 5 - 30.17 30.17 10 OVC029 24-hr Min Temp (1am): 52.0°F
24-hr Max Temp (1am): 62.1°F
2018-09-20 00:09 56 53 - 90 30° 5 - 30.16 - 9 BKN027 OVC037 None
2018-09-19 23:53 56 53 - 90 30° 5 - 30.16 30.16 10 FEW030 OVC042 None
2018-09-19 22:53 56 53 - 90 40° 8 - 30.15 30.15 10 OVC046 None
2018-09-19 21:53 56 53 - 90 30° 6 - 30.14 30.14 10 BKN031 OVC047 None
2018-09-19 20:53 57 52 - 83 40° 10 - 30.14 30.14 10 OVC048 None
2018-09-19 19:53 57 52 - 83 30° 10 - 30.11 30.11 10 FEW028 OVC048 6-hr Min Temp (8pm): 57.0°F
6-hr Max Temp (8pm): 62.1°F
2018-09-19 18:53 58 52 - 80 40° 9 - 30.08 30.09 10 OVC048 None
2018-09-19 17:53 60 53 - 77 30° 7 - 30.08 30.08 10 BKN035 OVC046 None
2018-09-19 16:53 61 51 - 69 20° 9 - 30.04 30.04 10 OVC030 None
2018-09-19 15:53 61 52 - 72 20° 7 - 30.02 30.02 10 OVC027 None
2018-09-19 14:53 62 52 - 69 20° 9 - 30.02 30.02 10 OVC022 None
2018-09-19 13:53 61 52 - 72 40° 13 - 30.02 30.01 10 OVC020 6-hr Min Temp (2pm): 52.0°F
6-hr Max Temp (2pm): 61.0°F
2018-09-19 12:53 58 51 - 77 30° 9 - 30.02 30.02 10 OVC017 None
2018-09-19 12:14 57 51 - 80 50° 9 - 30.02 - 10 OVC015 None
2018-09-19 11:53 57 51 - 80 30° 7 - 30.02 30.02 10 OVC013 None
2018-09-19 10:53 56 51 - 83 30° 9 - 30.01 30.01 10 OVC011 None
2018-09-19 10:51 55 52 - 87 40° 12 - 30.01 - 10 OVC011 None
2018-09-19 09:53 53 51 - 92 30° 13 - 30.00 30.00 10 BKN007 OVC011 None

Support USWX by starting your Amazon purchase here.